Airfield :
LOGIN :

Register | Disclaimer

   EN    FR    IT 

 










Legend :    VFR   Marginal VFR   IFR   Intensive IFR   Very Intensive IFR
Visi :
Ceiling :
>= 8 km
>= 3000ft
5 to 8 km
1000 to 3000 ft
1500m to 5 km
500 to 1000 ft
800 to 1500m
200 to 500 ft
< 800m
< 200 ft
Symbols :   Thunderstorms  Fog  Heavy snow  Heavy precipitations  Wind > 20 kt
SIGMETs :     Misc.  Thunderstorms  Icing  Turbulence  Mountain Waves  Volcanic Ashes






- Airport Elevation : 141 ft
- IATA code : SKS


EKSP - Srydstrup Vojens

CURRENT METAR :
  • 240450Z 29009KT 9999 SCT030 04/02 Q1015

EXPIRED METARs :
  • 240420Z 28008KT 9999 SCT030 04/02 Q1014
  • 240350Z 27012KT 9999 FEW030 04/03 Q1014
  • 240320Z 27012KT 9999 FEW028 04/03 Q1014
  • 240250Z 28010KT 9999 FEW028 04/02 Q1013
  • 240220Z 28010KT 9999 FEW028 04/03 Q1013

TAF TAF EKSP
Valid from the 24 at 03:00 until the 25 at 03:00 UTC


240221Z 2403/2503 28015KT 9999 FEW025
BECMG 2407/2410 19005KT
BECMG 2413/2415 15010KT 4000 -RADZ SCT006 BKN012
TEMPO 2415/2420 16012G22KT 2000 RASN BKN004
TEMPO 2420/2423 16012G22KT 1800 RADZ BR BKN002
BECMG 2423/2502 25018G30KT 9999 -RADZ SCT012 BKN020



MET'MAP, your aeronautical weather chart ! - Copyright ORBIFLY December 2007 - Disclaimer

ORBIFLY MET'MAP TEAM :

Programming & Development : Alexandra Zaïnal
Concept & original design : Baudouin d'Aumeries
Assistance for programming : Marc-Olivier Méhu
Technical & hardware support : Manuel Goepfert

Contact : metmap@orbifly.com




SOURCES & CREDITS :

   NOAA